sensor_id;sensor_type;location;lat;lon;timestamp;P1;durP1;ratioP1;P2;durP2;ratioP2
76626;SDS011;65519;53.230;10.390;2022-12-07T00:01:57;44.50;;;17.95;;
76626;SDS011;65519;53.230;10.390;2022-12-07T00:04:23;47.73;;;18.67;;
76626;SDS011;65519;53.230;10.390;2022-12-07T00:06:50;29.63;;;14.50;;
76626;SDS011;65519;53.230;10.390;2022-12-07T00:09:17;33.45;;;14.82;;
76626;SDS011;65519;53.230;10.390;2022-12-07T00:11:43;53.53;;;19.52;;
76626;SDS011;65519;53.230;10.390;2022-12-07T00:14:11;54.05;;;20.23;;
76626;SDS011;65519;53.230;10.390;2022-12-07T00:16:37;33.70;;;15.15;;
76626;SDS011;65519;53.230;10.390;2022-12-07T00:19:03;36.15;;;14.75;;
76626;SDS011;65519;53.230;10.390;2022-12-07T00:21:35;33.92;;;13.98;;
76626;SDS011;65519;53.230;10.390;2022-12-07T00:24:01;30.00;;;12.55;;
76626;SDS011;65519;53.230;10.390;2022-12-07T00:26:28;30.17;;;14.60;;
76626;SDS011;65519;53.230;10.390;2022-12-07T00:28:57;29.13;;;14.70;;
76626;SDS011;65519;53.230;10.390;2022-12-07T00:31:25;33.58;;;14.05;;
76626;SDS011;65519;53.230;10.390;2022-12-07T00:33:52;37.00;;;14.68;;
76626;SDS011;65519;53.230;10.390;2022-12-07T00:36:19;28.20;;;13.43;;
76626;SDS011;65519;53.230;10.390;2022-12-07T00:38:46;32.35;;;14.18;;
76626;SDS011;65519;53.230;10.390;2022-12-07T00:41:15;46.00;;;16.15;;
76626;SDS011;65519;53.230;10.390;2022-12-07T00:43:45;32.95;;;14.35;;
76626;SDS011;65519;53.230;10.390;2022-12-07T00:46:11;33.47;;;13.63;;
76626;SDS011;65519;53.230;10.390;2022-12-07T00:48:37;28.73;;;13.00;;
76626;SDS011;65519;53.230;10.390;2022-12-07T00:51:03;31.77;;;13.02;;
76626;SDS011;65519;53.230;10.390;2022-12-07T00:53:30;40.33;;;15.25;;
76626;SDS011;65519;53.230;10.390;2022-12-07T00:55:55;45.50;;;18.23;;
76626;SDS011;65519;53.230;10.390;2022-12-07T00:58:21;38.55;;;14.52;;
76626;SDS011;65519;53.230;10.390;2022-12-07T01:00:47;37.45;;;13.95;;
76626;SDS011;65519;53.230;10.390;2022-12-07T01:03:14;31.25;;;13.63;;
76626;SDS011;65519;53.230;10.390;2022-12-07T01:05:40;36.45;;;14.35;;
76626;SDS011;65519;53.230;10.390;2022-12-07T01:08:14;35.35;;;14.02;;
76626;SDS011;65519;53.230;10.390;2022-12-07T01:10:40;29.13;;;12.60;;
76626;SDS011;65519;53.230;10.390;2022-12-07T01:13:05;28.25;;;13.15;;
76626;SDS011;65519;53.230;10.390;2022-12-07T01:15:31;45.85;;;15.30;;
76626;SDS011;65519;53.230;10.390;2022-12-07T01:17:56;30.88;;;11.40;;
76626;SDS011;65519;53.230;10.390;2022-12-07T01:20:21;20.13;;;8.30;;
76626;SDS011;65519;53.230;10.390;2022-12-07T01:22:47;24.92;;;11.95;;
76626;SDS011;65519;53.230;10.390;2022-12-07T01:25:12;26.05;;;11.77;;
76626;SDS011;65519;53.230;10.390;2022-12-07T01:27:38;13.65;;;7.35;;
76626;SDS011;65519;53.230;10.390;2022-12-07T01:30:04;26.17;;;11.70;;
76626;SDS011;65519;53.230;10.390;2022-12-07T01:32:31;27.95;;;13.30;;
76626;SDS011;65519;53.230;10.390;2022-12-07T01:34:57;31.30;;;12.77;;
76626;SDS011;65519;53.230;10.390;2022-12-07T01:37:23;30.45;;;12.52;;
76626;SDS011;65519;53.230;10.390;2022-12-07T01:39:49;30.95;;;11.88;;
76626;SDS011;65519;53.230;10.390;2022-12-07T01:42:15;30.17;;;13.48;;
76626;SDS011;65519;53.230;10.390;2022-12-07T01:47:47;33.78;;;14.13;;
76626;SDS011;65519;53.230;10.390;2022-12-07T01:50:18;27.13;;;11.13;;
76626;SDS011;65519;53.230;10.390;2022-12-07T01:52:44;29.52;;;13.55;;
76626;SDS011;65519;53.230;10.390;2022-12-07T01:55:14;23.20;;;11.82;;
76626;SDS011;65519;53.230;10.390;2022-12-07T01:57:42;25.42;;;11.57;;
76626;SDS011;65519;53.230;10.390;2022-12-07T02:00:11;29.52;;;12.95;;
76626;SDS011;65519;53.230;10.390;2022-12-07T02:02:37;29.45;;;13.77;;
76626;SDS011;65519;53.230;10.390;2022-12-07T02:05:12;29.27;;;12.43;;
76626;SDS011;65519;53.230;10.390;2022-12-07T02:07:38;31.23;;;13.55;;
76626;SDS011;65519;53.230;10.390;2022-12-07T02:12:47;26.77;;;12.30;;
76626;SDS011;65519;53.230;10.390;2022-12-07T02:15:16;29.55;;;12.10;;
76626;SDS011;65519;53.230;10.390;2022-12-07T02:20:49;31.83;;;13.70;;
76626;SDS011;65519;53.230;10.390;2022-12-07T02:34:08;27.30;;;10.93;;
76626;SDS011;65519;53.230;10.390;2022-12-07T02:36:42;28.35;;;11.70;;
76626;SDS011;65519;53.230;10.390;2022-12-07T02:39:15;26.08;;;11.65;;
76626;SDS011;65519;53.230;10.390;2022-12-07T02:41:56;21.25;;;10.52;;
76626;SDS011;65519;53.230;10.390;2022-12-07T02:44:27;25.38;;;10.35;;
76626;SDS011;65519;53.230;10.390;2022-12-07T02:47:01;23.88;;;11.25;;
76626;SDS011;65519;53.230;10.390;2022-12-07T02:49:30;25.45;;;11.50;;
76626;SDS011;65519;53.230;10.390;2022-12-07T02:51:56;21.20;;;9.35;;
76626;SDS011;65519;53.230;10.390;2022-12-07T02:54:22;25.58;;;9.95;;
76626;SDS011;65519;53.230;10.390;2022-12-07T02:56:52;22.33;;;10.35;;
76626;SDS011;65519;53.230;10.390;2022-12-07T03:02:58;21.58;;;9.35;;
76626;SDS011;65519;53.230;10.390;2022-12-07T03:11:16;17.13;;;8.32;;
76626;SDS011;65519;53.230;10.390;2022-12-07T03:16:35;18.23;;;8.18;;
76626;SDS011;65519;53.230;10.390;2022-12-07T03:19:09;20.38;;;8.60;;
76626;SDS011;65519;53.230;10.390;2022-12-07T03:21:39;15.77;;;7.80;;
76626;SDS011;65519;53.230;10.390;2022-12-07T03:24:09;14.57;;;5.82;;
76626;SDS011;65519;53.230;10.390;2022-12-07T03:26:38;18.52;;;8.02;;
76626;SDS011;65519;53.230;10.390;2022-12-07T03:29:11;17.70;;;8.20;;
76626;SDS011;65519;53.230;10.390;2022-12-07T03:31:45;17.95;;;7.22;;
76626;SDS011;65519;53.230;10.390;2022-12-07T03:36:47;22.02;;;8.32;;
76626;SDS011;65519;53.230;10.390;2022-12-07T03:39:27;14.15;;;7.18;;
76626;SDS011;65519;53.230;10.390;2022-12-07T03:42:03;13.90;;;6.38;;
76626;SDS011;65519;53.230;10.390;2022-12-07T03:44:32;11.63;;;6.18;;
76626;SDS011;65519;53.230;10.390;2022-12-07T03:47:08;18.85;;;7.97;;
76626;SDS011;65519;53.230;10.390;2022-12-07T03:50:07;14.57;;;5.80;;
76626;SDS011;65519;53.230;10.390;2022-12-07T03:53:03;12.50;;;5.63;;
76626;SDS011;65519;53.230;10.390;2022-12-07T03:55:39;14.38;;;6.25;;
76626;SDS011;65519;53.230;10.390;2022-12-07T03:58:10;14.40;;;5.68;;
76626;SDS011;65519;53.230;10.390;2022-12-07T04:00:37;17.38;;;6.25;;
76626;SDS011;65519;53.230;10.390;2022-12-07T04:03:03;14.20;;;6.25;;
76626;SDS011;65519;53.230;10.390;2022-12-07T04:05:29;14.68;;;4.85;;
76626;SDS011;65519;53.230;10.390;2022-12-07T04:07:54;25.35;;;10.93;;
76626;SDS011;65519;53.230;10.390;2022-12-07T04:10:20;17.35;;;6.82;;
76626;SDS011;65519;53.230;10.390;2022-12-07T04:12:46;10.60;;;5.30;;
76626;SDS011;65519;53.230;10.390;2022-12-07T04:15:11;11.23;;;4.47;;
76626;SDS011;65519;53.230;10.390;2022-12-07T04:17:37;12.23;;;5.07;;
76626;SDS011;65519;53.230;10.390;2022-12-07T04:20:02;25.60;;;11.02;;
76626;SDS011;65519;53.230;10.390;2022-12-07T04:22:29;20.40;;;9.10;;
76626;SDS011;65519;53.230;10.390;2022-12-07T04:24:54;12.00;;;5.60;;
76626;SDS011;65519;53.230;10.390;2022-12-07T04:27:19;18.02;;;6.30;;
76626;SDS011;65519;53.230;10.390;2022-12-07T04:29:45;23.60;;;9.47;;
76626;SDS011;65519;53.230;10.390;2022-12-07T04:32:10;12.53;;;6.43;;
76626;SDS011;65519;53.230;10.390;2022-12-07T04:34:35;16.67;;;5.43;;
76626;SDS011;65519;53.230;10.390;2022-12-07T04:37:01;10.25;;;5.05;;
76626;SDS011;65519;53.230;10.390;2022-12-07T04:39:27;14.57;;;4.38;;
76626;SDS011;65519;53.230;10.390;2022-12-07T04:41:54;14.15;;;5.25;;
76626;SDS011;65519;53.230;10.390;2022-12-07T04:44:21;10.98;;;4.50;;
76626;SDS011;65519;53.230;10.390;2022-12-07T04:46:47;10.15;;;4.53;;
76626;SDS011;65519;53.230;10.390;2022-12-07T04:49:13;12.43;;;4.63;;
76626;SDS011;65519;53.230;10.390;2022-12-07T04:51:40;7.82;;;4.72;;
76626;SDS011;65519;53.230;10.390;2022-12-07T04:54:06;11.55;;;4.93;;
76626;SDS011;65519;53.230;10.390;2022-12-07T04:56:31;8.30;;;4.28;;
76626;SDS011;65519;53.230;10.390;2022-12-07T04:58:57;12.68;;;4.45;;
76626;SDS011;65519;53.230;10.390;2022-12-07T05:01:23;7.25;;;3.83;;
76626;SDS011;65519;53.230;10.390;2022-12-07T05:03:49;6.90;;;3.92;;
76626;SDS011;65519;53.230;10.390;2022-12-07T05:06:15;11.73;;;4.00;;
76626;SDS011;65519;53.230;10.390;2022-12-07T05:08:40;9.60;;;4.82;;
76626;SDS011;65519;53.230;10.390;2022-12-07T05:11:07;11.45;;;5.50;;
76626;SDS011;65519;53.230;10.390;2022-12-07T05:13:33;7.63;;;4.03;;
76626;SDS011;65519;53.230;10.390;2022-12-07T05:15:59;9.00;;;3.92;;
76626;SDS011;65519;53.230;10.390;2022-12-07T05:18:24;9.68;;;3.90;;
76626;SDS011;65519;53.230;10.390;2022-12-07T05:20:50;9.52;;;3.53;;
76626;SDS011;65519;53.230;10.390;2022-12-07T05:23:16;6.95;;;3.92;;
76626;SDS011;65519;53.230;10.390;2022-12-07T05:25:41;12.88;;;4.22;;
76626;SDS011;65519;53.230;10.390;2022-12-07T05:28:06;8.10;;;4.85;;
76626;SDS011;65519;53.230;10.390;2022-12-07T05:30:32;13.47;;;6.13;;
76626;SDS011;65519;53.230;10.390;2022-12-07T05:32:57;28.23;;;11.57;;
76626;SDS011;65519;53.230;10.390;2022-12-07T05:35:23;10.13;;;4.05;;
76626;SDS011;65519;53.230;10.390;2022-12-07T05:37:48;7.18;;;3.30;;
76626;SDS011;65519;53.230;10.390;2022-12-07T05:40:14;8.95;;;3.50;;
76626;SDS011;65519;53.230;10.390;2022-12-07T05:42:40;9.20;;;3.95;;
76626;SDS011;65519;53.230;10.390;2022-12-07T05:45:06;10.50;;;5.28;;
76626;SDS011;65519;53.230;10.390;2022-12-07T05:47:33;8.27;;;3.72;;
76626;SDS011;65519;53.230;10.390;2022-12-07T05:49:58;4.93;;;2.65;;
76626;SDS011;65519;53.230;10.390;2022-12-07T05:52:23;9.13;;;3.45;;
76626;SDS011;65519;53.230;10.390;2022-12-07T05:54:49;7.07;;;3.58;;
76626;SDS011;65519;53.230;10.390;2022-12-07T05:57:14;8.07;;;3.53;;
76626;SDS011;65519;53.230;10.390;2022-12-07T05:59:40;7.05;;;3.13;;
76626;SDS011;65519;53.230;10.390;2022-12-07T06:02:10;6.50;;;3.17;;
76626;SDS011;65519;53.230;10.390;2022-12-07T06:04:41;8.70;;;3.03;;
76626;SDS011;65519;53.230;10.390;2022-12-07T06:07:09;10.27;;;2.88;;
76626;SDS011;65519;53.230;10.390;2022-12-07T06:09:35;7.75;;;3.55;;
76626;SDS011;65519;53.230;10.390;2022-12-07T06:12:01;7.80;;;3.13;;
76626;SDS011;65519;53.230;10.390;2022-12-07T06:14:45;9.48;;;3.65;;
76626;SDS011;65519;53.230;10.390;2022-12-07T06:17:11;12.88;;;5.95;;
76626;SDS011;65519;53.230;10.390;2022-12-07T06:19:38;15.35;;;6.38;;
76626;SDS011;65519;53.230;10.390;2022-12-07T06:22:04;5.22;;;2.88;;
76626;SDS011;65519;53.230;10.390;2022-12-07T06:24:30;8.00;;;3.00;;
76626;SDS011;65519;53.230;10.390;2022-12-07T06:26:56;10.88;;;4.20;;
76626;SDS011;65519;53.230;10.390;2022-12-07T06:29:22;16.50;;;7.88;;
76626;SDS011;65519;53.230;10.390;2022-12-07T06:31:47;13.18;;;4.63;;
76626;SDS011;65519;53.230;10.390;2022-12-07T06:34:14;7.43;;;3.55;;
76626;SDS011;65519;53.230;10.390;2022-12-07T06:36:41;10.45;;;3.97;;
76626;SDS011;65519;53.230;10.390;2022-12-07T06:39:07;9.45;;;4.00;;
76626;SDS011;65519;53.230;10.390;2022-12-07T06:41:34;10.48;;;3.95;;
76626;SDS011;65519;53.230;10.390;2022-12-07T06:44:00;7.00;;;3.75;;
76626;SDS011;65519;53.230;10.390;2022-12-07T06:46:26;7.22;;;3.38;;
76626;SDS011;65519;53.230;10.390;2022-12-07T06:48:51;8.10;;;4.05;;
76626;SDS011;65519;53.230;10.390;2022-12-07T06:51:16;7.60;;;3.92;;
76626;SDS011;65519;53.230;10.390;2022-12-07T06:53:42;11.40;;;3.70;;
76626;SDS011;65519;53.230;10.390;2022-12-07T06:56:07;8.93;;;3.72;;
76626;SDS011;65519;53.230;10.390;2022-12-07T06:58:33;6.75;;;4.05;;
76626;SDS011;65519;53.230;10.390;2022-12-07T07:00:58;8.63;;;3.75;;
76626;SDS011;65519;53.230;10.390;2022-12-07T07:03:23;7.32;;;3.92;;
76626;SDS011;65519;53.230;10.390;2022-12-07T07:05:49;13.52;;;4.05;;
76626;SDS011;65519;53.230;10.390;2022-12-07T07:08:14;15.30;;;3.60;;
76626;SDS011;65519;53.230;10.390;2022-12-07T07:10:40;8.35;;;3.50;;
76626;SDS011;65519;53.230;10.390;2022-12-07T07:13:06;9.57;;;4.10;;
76626;SDS011;65519;53.230;10.390;2022-12-07T07:15:32;7.32;;;3.33;;
76626;SDS011;65519;53.230;10.390;2022-12-07T07:17:58;13.05;;;4.75;;
76626;SDS011;65519;53.230;10.390;2022-12-07T07:20:24;7.45;;;3.58;;
76626;SDS011;65519;53.230;10.390;2022-12-07T07:22:50;6.68;;;3.60;;
76626;SDS011;65519;53.230;10.390;2022-12-07T07:25:15;6.03;;;3.10;;
76626;SDS011;65519;53.230;10.390;2022-12-07T07:27:41;7.80;;;3.50;;
76626;SDS011;65519;53.230;10.390;2022-12-07T07:30:06;9.80;;;3.35;;
76626;SDS011;65519;53.230;10.390;2022-12-07T07:32:33;9.52;;;4.00;;
76626;SDS011;65519;53.230;10.390;2022-12-07T07:34:58;7.72;;;3.13;;
76626;SDS011;65519;53.230;10.390;2022-12-07T07:37:23;6.57;;;3.05;;
76626;SDS011;65519;53.230;10.390;2022-12-07T07:39:49;7.03;;;3.05;;
76626;SDS011;65519;53.230;10.390;2022-12-07T07:42:14;6.05;;;2.10;;
76626;SDS011;65519;53.230;10.390;2022-12-07T07:44:40;7.55;;;3.38;;
76626;SDS011;65519;53.230;10.390;2022-12-07T07:47:06;8.68;;;3.50;;
76626;SDS011;65519;53.230;10.390;2022-12-07T07:49:31;5.57;;;3.20;;
76626;SDS011;65519;53.230;10.390;2022-12-07T07:51:56;6.03;;;3.22;;
76626;SDS011;65519;53.230;10.390;2022-12-07T07:54:22;7.53;;;2.58;;
76626;SDS011;65519;53.230;10.390;2022-12-07T07:56:47;24.95;;;10.38;;
76626;SDS011;65519;53.230;10.390;2022-12-07T07:59:13;28.55;;;15.38;;
76626;SDS011;65519;53.230;10.390;2022-12-07T08:01:39;35.15;;;17.50;;
76626;SDS011;65519;53.230;10.390;2022-12-07T08:04:04;5.68;;;3.00;;
76626;SDS011;65519;53.230;10.390;2022-12-07T08:06:30;7.97;;;3.10;;
76626;SDS011;65519;53.230;10.390;2022-12-07T08:08:55;7.55;;;3.53;;
76626;SDS011;65519;53.230;10.390;2022-12-07T08:11:22;43.03;;;24.00;;
76626;SDS011;65519;53.230;10.390;2022-12-07T08:13:48;50.50;;;22.02;;
76626;SDS011;65519;53.230;10.390;2022-12-07T08:16:13;4.20;;;2.75;;
76626;SDS011;65519;53.230;10.390;2022-12-07T08:18:40;13.60;;;6.47;;
76626;SDS011;65519;53.230;10.390;2022-12-07T08:21:06;5.35;;;2.60;;
76626;SDS011;65519;53.230;10.390;2022-12-07T08:23:34;5.03;;;3.30;;
76626;SDS011;65519;53.230;10.390;2022-12-07T08:26:00;4.78;;;2.90;;
76626;SDS011;65519;53.230;10.390;2022-12-07T08:28:27;4.25;;;2.65;;
76626;SDS011;65519;53.230;10.390;2022-12-07T08:30:58;6.00;;;2.40;;
76626;SDS011;65519;53.230;10.390;2022-12-07T08:33:27;7.15;;;3.25;;
76626;SDS011;65519;53.230;10.390;2022-12-07T08:35:53;10.98;;;4.10;;
76626;SDS011;65519;53.230;10.390;2022-12-07T08:38:19;9.25;;;3.05;;
76626;SDS011;65519;53.230;10.390;2022-12-07T08:40:44;6.90;;;3.22;;
76626;SDS011;65519;53.230;10.390;2022-12-07T08:43:09;8.80;;;3.03;;
76626;SDS011;65519;53.230;10.390;2022-12-07T08:45:35;5.07;;;3.00;;
76626;SDS011;65519;53.230;10.390;2022-12-07T08:48:03;5.00;;;3.10;;
76626;SDS011;65519;53.230;10.390;2022-12-07T08:50:32;7.18;;;3.28;;
76626;SDS011;65519;53.230;10.390;2022-12-07T08:53:00;4.78;;;2.92;;
76626;SDS011;65519;53.230;10.390;2022-12-07T08:55:27;10.50;;;3.45;;
76626;SDS011;65519;53.230;10.390;2022-12-07T08:57:54;7.18;;;2.60;;
76626;SDS011;65519;53.230;10.390;2022-12-07T09:00:20;4.13;;;2.60;;
76626;SDS011;65519;53.230;10.390;2022-12-07T09:02:45;62.28;;;34.70;;
76626;SDS011;65519;53.230;10.390;2022-12-07T09:05:12;47.33;;;21.35;;
76626;SDS011;65519;53.230;10.390;2022-12-07T09:07:39;42.17;;;19.77;;
76626;SDS011;65519;53.230;10.390;2022-12-07T09:10:07;15.48;;;6.78;;
76626;SDS011;65519;53.230;10.390;2022-12-07T09:12:33;5.93;;;3.50;;
76626;SDS011;65519;53.230;10.390;2022-12-07T09:14:58;7.38;;;2.97;;
76626;SDS011;65519;53.230;10.390;2022-12-07T09:17:25;5.97;;;2.25;;
76626;SDS011;65519;53.230;10.390;2022-12-07T09:19:51;8.48;;;3.17;;
76626;SDS011;65519;53.230;10.390;2022-12-07T09:22:16;6.22;;;2.83;;
76626;SDS011;65519;53.230;10.390;2022-12-07T09:24:42;5.68;;;2.67;;
76626;SDS011;65519;53.230;10.390;2022-12-07T09:27:08;6.10;;;3.33;;
76626;SDS011;65519;53.230;10.390;2022-12-07T09:29:33;11.20;;;2.78;;
76626;SDS011;65519;53.230;10.390;2022-12-07T09:31:59;6.68;;;3.25;;
76626;SDS011;65519;53.230;10.390;2022-12-07T09:34:24;5.33;;;2.53;;
76626;SDS011;65519;53.230;10.390;2022-12-07T09:36:51;5.25;;;2.80;;
76626;SDS011;65519;53.230;10.390;2022-12-07T09:39:16;5.27;;;2.90;;
76626;SDS011;65519;53.230;10.390;2022-12-07T09:41:42;5.32;;;2.15;;
76626;SDS011;65519;53.230;10.390;2022-12-07T09:44:27;4.93;;;2.40;;
76626;SDS011;65519;53.230;10.390;2022-12-07T09:46:53;7.10;;;3.10;;
76626;SDS011;65519;53.230;10.390;2022-12-07T09:49:21;11.23;;;4.90;;
76626;SDS011;65519;53.230;10.390;2022-12-07T09:51:55;6.95;;;3.28;;
76626;SDS011;65519;53.230;10.390;2022-12-07T09:54:34;9.02;;;2.72;;
76626;SDS011;65519;53.230;10.390;2022-12-07T09:57:01;5.15;;;2.85;;
76626;SDS011;65519;53.230;10.390;2022-12-07T09:59:27;12.93;;;3.75;;
76626;SDS011;65519;53.230;10.390;2022-12-07T10:01:53;44.08;;;19.95;;
76626;SDS011;65519;53.230;10.390;2022-12-07T10:04:20;9.30;;;3.88;;
76626;SDS011;65519;53.230;10.390;2022-12-07T10:06:47;14.73;;;6.18;;
76626;SDS011;65519;53.230;10.390;2022-12-07T10:09:13;34.40;;;16.73;;
76626;SDS011;65519;53.230;10.390;2022-12-07T10:14:28;15.60;;;5.70;;
76626;SDS011;65519;53.230;10.390;2022-12-07T10:16:55;4.90;;;2.42;;
76626;SDS011;65519;53.230;10.390;2022-12-07T10:19:25;6.70;;;3.15;;
76626;SDS011;65519;53.230;10.390;2022-12-07T10:22:12;3.90;;;1.77;;
76626;SDS011;65519;53.230;10.390;2022-12-07T10:24:39;9.02;;;2.75;;
76626;SDS011;65519;53.230;10.390;2022-12-07T10:27:26;7.25;;;2.20;;
76626;SDS011;65519;53.230;10.390;2022-12-07T10:29:55;6.80;;;2.67;;
76626;SDS011;65519;53.230;10.390;2022-12-07T10:32:33;4.93;;;2.50;;
76626;SDS011;65519;53.230;10.390;2022-12-07T10:37:43;5.45;;;2.75;;
76626;SDS011;65519;53.230;10.390;2022-12-07T10:40:52;6.57;;;2.97;;
76626;SDS011;65519;53.230;10.390;2022-12-07T10:45:30;4.88;;;2.30;;
76626;SDS011;65519;53.230;10.390;2022-12-07T11:06:24;5.38;;;2.60;;
76626;SDS011;65519;53.230;10.390;2022-12-07T11:17:22;6.13;;;1.50;;
76626;SDS011;65519;53.230;10.390;2022-12-07T11:23:25;4.20;;;1.70;;
76626;SDS011;65519;53.230;10.390;2022-12-07T11:29:01;7.05;;;1.77;;
76626;SDS011;65519;53.230;10.390;2022-12-07T11:37:13;4.47;;;1.73;;
76626;SDS011;65519;53.230;10.390;2022-12-07T11:39:49;5.22;;;1.48;;
76626;SDS011;65519;53.230;10.390;2022-12-07T11:42:21;3.13;;;1.55;;
76626;SDS011;65519;53.230;10.390;2022-12-07T11:58:02;10.13;;;4.70;;
76626;SDS011;65519;53.230;10.390;2022-12-07T12:00:34;7.22;;;2.88;;
76626;SDS011;65519;53.230;10.390;2022-12-07T12:05:33;4.25;;;1.95;;
76626;SDS011;65519;53.230;10.390;2022-12-07T12:08:11;2.95;;;1.90;;
76626;SDS011;65519;53.230;10.390;2022-12-07T12:20:57;5.65;;;1.88;;
76626;SDS011;65519;53.230;10.390;2022-12-07T12:26:31;7.03;;;2.30;;
76626;SDS011;65519;53.230;10.390;2022-12-07T12:31:34;3.43;;;2.20;;
76626;SDS011;65519;53.230;10.390;2022-12-07T12:34:29;6.35;;;2.28;;
76626;SDS011;65519;53.230;10.390;2022-12-07T12:36:58;4.07;;;2.17;;
76626;SDS011;65519;53.230;10.390;2022-12-07T12:39:24;6.32;;;2.25;;
76626;SDS011;65519;53.230;10.390;2022-12-07T12:41:51;4.75;;;1.85;;
76626;SDS011;65519;53.230;10.390;2022-12-07T12:51:48;4.57;;;2.20;;
76626;SDS011;65519;53.230;10.390;2022-12-07T12:56:46;4.90;;;2.22;;
76626;SDS011;65519;53.230;10.390;2022-12-07T13:04:59;4.30;;;2.20;;
76626;SDS011;65519;53.230;10.390;2022-12-07T13:23:36;9.23;;;1.83;;
76626;SDS011;65519;53.230;10.390;2022-12-07T13:26:15;8.60;;;2.70;;
76626;SDS011;65519;53.230;10.390;2022-12-07T13:28:52;6.57;;;2.38;;
76626;SDS011;65519;53.230;10.390;2022-12-07T13:33:55;12.37;;;2.23;;
76626;SDS011;65519;53.230;10.390;2022-12-07T13:36:22;3.35;;;1.65;;
76626;SDS011;65519;53.230;10.390;2022-12-07T13:38:56;7.47;;;2.17;;
76626;SDS011;65519;53.230;10.390;2022-12-07T13:41:26;8.70;;;2.17;;
76626;SDS011;65519;53.230;10.390;2022-12-07T13:46:19;4.03;;;2.00;;
76626;SDS011;65519;53.230;10.390;2022-12-07T13:48:50;7.93;;;2.50;;
76626;SDS011;65519;53.230;10.390;2022-12-07T13:51:21;7.85;;;2.05;;
76626;SDS011;65519;53.230;10.390;2022-12-07T13:53:59;7.35;;;2.13;;
76626;SDS011;65519;53.230;10.390;2022-12-07T13:56:32;7.40;;;2.65;;
76626;SDS011;65519;53.230;10.390;2022-12-07T13:58:59;6.43;;;1.90;;
76626;SDS011;65519;53.230;10.390;2022-12-07T14:01:26;4.15;;;1.63;;
76626;SDS011;65519;53.230;10.390;2022-12-07T14:03:52;11.20;;;4.88;;
76626;SDS011;65519;53.230;10.390;2022-12-07T14:06:19;24.27;;;7.40;;
76626;SDS011;65519;53.230;10.390;2022-12-07T14:08:50;3.92;;;1.67;;
76626;SDS011;65519;53.230;10.390;2022-12-07T14:11:17;5.03;;;1.80;;
76626;SDS011;65519;53.230;10.390;2022-12-07T14:18:50;10.77;;;2.10;;
76626;SDS011;65519;53.230;10.390;2022-12-07T14:21:17;3.53;;;1.40;;
76626;SDS011;65519;53.230;10.390;2022-12-07T14:23:45;4.55;;;1.30;;
76626;SDS011;65519;53.230;10.390;2022-12-07T14:26:26;6.75;;;1.75;;
76626;SDS011;65519;53.230;10.390;2022-12-07T14:28:51;7.27;;;1.93;;
76626;SDS011;65519;53.230;10.390;2022-12-07T14:31:18;5.97;;;1.80;;
76626;SDS011;65519;53.230;10.390;2022-12-07T14:33:46;6.43;;;1.90;;
76626;SDS011;65519;53.230;10.390;2022-12-07T14:36:12;5.15;;;1.60;;
76626;SDS011;65519;53.230;10.390;2022-12-07T14:38:38;4.47;;;1.60;;
76626;SDS011;65519;53.230;10.390;2022-12-07T14:41:04;8.00;;;1.40;;
76626;SDS011;65519;53.230;10.390;2022-12-07T14:43:58;3.92;;;1.45;;
76626;SDS011;65519;53.230;10.390;2022-12-07T14:46:24;3.55;;;1.30;;
76626;SDS011;65519;53.230;10.390;2022-12-07T14:48:50;4.28;;;1.65;;
76626;SDS011;65519;53.230;10.390;2022-12-07T14:51:15;2.10;;;1.10;;
76626;SDS011;65519;53.230;10.390;2022-12-07T14:53:42;10.18;;;2.00;;
76626;SDS011;65519;53.230;10.390;2022-12-07T14:56:11;4.00;;;1.67;;
76626;SDS011;65519;53.230;10.390;2022-12-07T14:58:36;3.92;;;1.63;;
76626;SDS011;65519;53.230;10.390;2022-12-07T15:01:02;4.63;;;1.90;;
76626;SDS011;65519;53.230;10.390;2022-12-07T15:03:27;5.65;;;2.25;;
76626;SDS011;65519;53.230;10.390;2022-12-07T15:05:53;5.15;;;2.45;;
76626;SDS011;65519;53.230;10.390;2022-12-07T15:08:18;6.30;;;2.10;;
76626;SDS011;65519;53.230;10.390;2022-12-07T15:10:43;7.65;;;2.38;;
76626;SDS011;65519;53.230;10.390;2022-12-07T15:13:09;4.72;;;2.08;;
76626;SDS011;65519;53.230;10.390;2022-12-07T15:15:54;3.40;;;1.83;;
76626;SDS011;65519;53.230;10.390;2022-12-07T15:18:20;3.33;;;2.40;;
76626;SDS011;65519;53.230;10.390;2022-12-07T15:20:47;7.05;;;2.75;;
76626;SDS011;65519;53.230;10.390;2022-12-07T15:23:13;3.97;;;2.17;;
76626;SDS011;65519;53.230;10.390;2022-12-07T15:25:42;6.18;;;2.85;;
76626;SDS011;65519;53.230;10.390;2022-12-07T15:28:08;8.82;;;3.22;;
76626;SDS011;65519;53.230;10.390;2022-12-07T15:30:33;5.10;;;2.92;;
76626;SDS011;65519;53.230;10.390;2022-12-07T15:32:59;10.63;;;4.83;;
76626;SDS011;65519;53.230;10.390;2022-12-07T15:35:24;14.98;;;5.75;;
76626;SDS011;65519;53.230;10.390;2022-12-07T15:37:50;9.63;;;3.67;;
76626;SDS011;65519;53.230;10.390;2022-12-07T15:40:15;10.20;;;4.35;;
76626;SDS011;65519;53.230;10.390;2022-12-07T15:42:40;33.47;;;15.75;;
76626;SDS011;65519;53.230;10.390;2022-12-07T15:45:06;24.50;;;8.02;;
76626;SDS011;65519;53.230;10.390;2022-12-07T15:47:38;10.32;;;6.22;;
76626;SDS011;65519;53.230;10.390;2022-12-07T15:50:06;11.15;;;4.85;;
76626;SDS011;65519;53.230;10.390;2022-12-07T15:52:34;5.95;;;3.80;;
76626;SDS011;65519;53.230;10.390;2022-12-07T15:55:00;23.13;;;5.68;;
76626;SDS011;65519;53.230;10.390;2022-12-07T15:57:28;11.68;;;4.28;;
76626;SDS011;65519;53.230;10.390;2022-12-07T15:59:54;7.75;;;3.50;;
76626;SDS011;65519;53.230;10.390;2022-12-07T16:02:20;6.22;;;2.90;;
76626;SDS011;65519;53.230;10.390;2022-12-07T16:04:45;8.02;;;3.42;;
76626;SDS011;65519;53.230;10.390;2022-12-07T16:07:11;7.43;;;3.20;;
76626;SDS011;65519;53.230;10.390;2022-12-07T16:09:37;9.00;;;3.33;;
76626;SDS011;65519;53.230;10.390;2022-12-07T16:12:02;4.38;;;2.85;;
76626;SDS011;65519;53.230;10.390;2022-12-07T16:14:28;9.15;;;3.33;;
76626;SDS011;65519;53.230;10.390;2022-12-07T16:16:53;7.72;;;3.33;;
76626;SDS011;65519;53.230;10.390;2022-12-07T16:19:19;7.95;;;3.72;;
76626;SDS011;65519;53.230;10.390;2022-12-07T16:21:44;15.50;;;3.72;;
76626;SDS011;65519;53.230;10.390;2022-12-07T16:24:10;9.13;;;4.50;;
76626;SDS011;65519;53.230;10.390;2022-12-07T16:26:37;8.05;;;3.90;;
76626;SDS011;65519;53.230;10.390;2022-12-07T16:29:02;8.77;;;3.80;;
76626;SDS011;65519;53.230;10.390;2022-12-07T16:31:28;14.27;;;5.75;;
76626;SDS011;65519;53.230;10.390;2022-12-07T16:33:54;11.75;;;5.32;;
76626;SDS011;65519;53.230;10.390;2022-12-07T16:36:22;8.32;;;4.38;;
76626;SDS011;65519;53.230;10.390;2022-12-07T16:38:49;7.25;;;4.05;;
76626;SDS011;65519;53.230;10.390;2022-12-07T16:41:15;14.45;;;4.22;;
76626;SDS011;65519;53.230;10.390;2022-12-07T16:43:40;11.35;;;4.55;;
76626;SDS011;65519;53.230;10.390;2022-12-07T16:46:06;9.45;;;4.80;;
76626;SDS011;65519;53.230;10.390;2022-12-07T16:48:35;13.02;;;5.22;;
76626;SDS011;65519;53.230;10.390;2022-12-07T16:51:05;11.68;;;5.25;;
76626;SDS011;65519;53.230;10.390;2022-12-07T16:53:33;15.18;;;5.55;;
76626;SDS011;65519;53.230;10.390;2022-12-07T16:55:59;12.40;;;5.15;;
76626;SDS011;65519;53.230;10.390;2022-12-07T16:58:25;11.40;;;5.95;;
76626;SDS011;65519;53.230;10.390;2022-12-07T17:00:50;43.47;;;16.67;;
76626;SDS011;65519;53.230;10.390;2022-12-07T17:03:15;17.63;;;6.22;;
76626;SDS011;65519;53.230;10.390;2022-12-07T17:05:42;12.27;;;4.70;;